Time;durP1;ratioP1;P1;durP2;ratioP2;P2;SDS_P1;SDS_P2;PMS_P1;PMS_P2;Temp;Humidity;BMP_temperature;BMP_pressure;BME280_temperature;BME280_humidity;BME280_pressure;Samples;Min_cycle;Max_cycle;Signal;HPM_P1;HPM_P2
2023/01/12 00:00:34;;;;;;;;;;;;;;;7.85;68.56;100213.78;1088421;46;19967;-77
2023/01/12 00:01:39;;;;;;;;;;;;;;;7.84;68.89;100210.25;1087953;54;19947;-77
2023/01/12 00:02:44;;;;;;;;;;;;;;;7.85;68.97;100208.47;1087949;54;19942;-77
2023/01/12 00:03:45;;;;;;;;;;;;;;;7.77;68.91;100211.72;1087817;54;19965;-77
2023/01/12 00:04:49;;;;;;;;;;;;;;;7.72;69.01;100209.44;1088049;54;19943;-78
2023/01/12 00:05:50;;;;;;;;;;;;;;;7.85;68.77;100208.47;1087739;54;19946;-77
2023/01/12 00:06:54;;;;;;;;;;;;;;;7.89;68.59;100212.56;1089534;46;20610;-78
2023/01/12 00:07:55;;;;;;;;;;;;;;;7.79;68.47;100207.13;1087974;54;19943;-77
2023/01/12 00:08:59;;;;;;;;;;;;;;;7.77;68.88;100203.75;1088013;54;19943;-76
2023/01/12 00:10:03;;;;;;;;;;;;;;;7.75;68.92;100214.53;1087932;54;19943;-78
2023/01/12 00:11:04;;;;;;;;;;;;;;;7.77;68.82;100209.06;1092465;39;20109;-77
2023/01/12 00:12:12;;;;;;;;;;;;;;;7.85;68.70;100203.97;1087960;54;19946;-77
2023/01/12 00:13:13;;;;;;;;;;;;;;;7.77;68.86;100201.94;1087953;54;19949;-77
2023/01/12 00:14:17;;;;;;;;;;;;;;;7.72;69.09;100200.63;1088147;46;19943;-77
2023/01/12 00:16:33;;;;;;;;;;;;;;;7.78;69.03;100208.09;1087834;54;19942;-76
2023/01/12 00:16:42;;;;;;;;;;;;;;;7.80;68.67;100206.16;1087788;54;20044;-76
2023/01/12 00:17:43;;;;;;;;;;;;;;;7.80;69.25;100206.16;1087933;54;19950;-77
2023/01/12 00:18:47;;;;;;;;;;;;;;;7.79;69.02;100199.97;1087896;54;19991;-76
2023/01/12 00:19:53;;;;;;;;;;;;;;;7.84;68.88;100202.28;1087959;54;19938;-76
2023/01/12 00:20:54;;;;;;;;;;;;;;;7.89;68.61;100201.91;1088015;54;19943;-77
2023/01/12 00:22:00;;;;;;;;;;;;;;;7.90;67.86;100212.44;1088224;54;19933;-76
2023/01/12 00:23:01;;;;;;;;;;;;;;;7.91;67.63;100203.50;1092723;39;20645;-78
2023/01/12 00:24:07;;;;;;;;;;;;;;;7.91;67.63;100200.84;1088229;54;19990;-76
2023/01/12 00:25:08;;;;;;;;;;;;;;;7.94;68.03;100203.22;1091676;39;20645;-77
2023/01/12 00:26:12;;;;;;;;;;;;;;;7.90;67.65;100207.13;1088113;54;19943;-77
2023/01/12 00:27:19;;;;;;;;;;;;;;;7.89;67.63;100200.09;1088169;54;19949;-76
2023/01/12 00:28:21;;;;;;;;;;;;;;;7.93;67.91;100206.03;1088171;54;19950;-77
2023/01/12 00:29:25;;;;;;;;;;;;;;;7.86;68.08;100203.00;1088279;54;19949;-76
2023/01/12 00:30:26;;;;;;;;;;;;;;;7.82;67.88;100204.25;1088183;54;20020;-76
2023/01/12 00:31:31;;;;;;;;;;;;;;;7.83;67.80;100205.06;1088327;54;19949;-76
2023/01/12 00:32:34;;;;;;;;;;;;;;;7.79;67.50;100201.81;1088310;54;19931;-77
2023/01/12 00:33:37;;;;;;;;;;;;;;;7.91;67.77;100203.50;1088244;54;19967;-77
2023/01/12 00:34:41;;;;;;;;;;;;;;;7.91;67.53;100195.50;1092579;46;19941;-77
2023/01/12 00:35:42;;;;;;;;;;;;;;;7.87;67.55;100204.69;1090189;46;19947;-77
2023/01/12 00:36:48;;;;;;;;;;;;;;;7.86;67.69;100200.34;1088105;54;20010;-76
2023/01/12 00:37:49;;;;;;;;;;;;;;;7.95;67.52;100202.25;1089585;39;20130;-77
2023/01/12 00:38:53;;;;;;;;;;;;;;;7.97;67.17;100196.84;1088045;54;19935;-76
2023/01/12 00:39:57;;;;;;;;;;;;;;;7.85;67.22;100201.31;1088140;54;20642;-77
2023/01/12 00:41:03;;;;;;;;;;;;;;;7.91;67.18;100205.28;1088092;54;19926;-77
2023/01/12 00:45:58;;;;;;;;;;;;;;;7.88;67.01;100195.75;1088118;54;20007;-77
2023/01/12 00:46:59;;;;;;;;;;;;;;;7.89;67.22;100199.25;1088609;39;20699;-76
2023/01/12 00:48:02;;;;;;;;;;;;;;;7.88;66.97;100197.56;1088121;54;20675;-77
2023/01/12 00:49:04;;;;;;;;;;;;;;;7.84;66.65;100202.28;1088179;54;19946;-76
2023/01/12 00:50:09;;;;;;;;;;;;;;;7.84;66.63;100201.44;1088128;54;19938;-77
2023/01/12 00:51:10;;;;;;;;;;;;;;;7.87;66.71;100202.03;1088208;54;19942;-78
2023/01/12 00:52:16;;;;;;;;;;;;;;;7.93;66.69;100195.38;1088201;54;20729;-77
2023/01/12 00:53:17;;;;;;;;;;;;;;;7.93;66.76;100195.38;1088165;54;19946;-79
2023/01/12 00:54:20;;;;;;;;;;;;;;;7.86;66.92;100194.19;1093225;39;20561;-77
2023/01/12 00:55:21;;;;;;;;;;;;;;;7.80;66.78;100200.84;1088094;54;19938;-78
2023/01/12 00:56:25;;;;;;;;;;;;;;;7.94;66.61;100189.91;1088048;54;19958;-76
2023/01/12 00:57:27;;;;;;;;;;;;;;;8.02;66.61;100186.66;1088036;54;19942;-78
2023/01/12 00:58:34;;;;;;;;;;;;;;;7.96;66.66;100184.50;1088037;47;19945;-77
2023/01/12 00:59:35;;;;;;;;;;;;;;;7.96;66.36;100184.50;1088016;54;19951;-77
2023/01/12 01:00:42;;;;;;;;;;;;;;;7.97;66.57;100180.88;1087907;54;20673;-78
2023/01/12 01:01:43;;;;;;;;;;;;;;;8.00;66.54;100179.75;1088078;54;19943;-77
2023/01/12 01:02:47;;;;;;;;;;;;;;;7.94;66.76;100183.75;1088170;54;19938;-77
2023/01/12 01:03:53;;;;;;;;;;;;;;;7.87;66.65;100188.72;1088133;54;19942;-78
2023/01/12 01:04:57;;;;;;;;;;;;;;;7.85;67.11;100182.69;1088151;54;19949;-78
2023/01/12 01:06:29;;;;;;;;;;;;;;;7.82;66.72;100185.59;1088292;47;19943;-77
2023/01/12 01:07:33;;;;;;;;;;;;;;;7.88;66.93;100174.44;1088143;54;19947;-77
2023/01/12 01:08:35;;;;;;;;;;;;;;;7.92;66.88;100183.03;1088286;54;19943;-77
2023/01/12 01:09:39;;;;;;;;;;;;;;;7.97;66.73;100176.38;1088124;54;19943;-77
2023/01/12 01:10:40;;;;;;;;;;;;;;;7.96;66.72;100182.66;1088368;46;19935;-77
2023/01/12 01:11:48;;;;;;;;;;;;;;;7.97;66.67;100187.03;1088250;54;19946;-77
2023/01/12 01:12:50;;;;;;;;;;;;;;;7.98;66.46;100179.91;1088247;54;19947;-77
2023/01/12 01:13:58;;;;;;;;;;;;;;;7.98;66.54;100177.22;1090307;46;19942;-76
2023/01/12 01:14:59;;;;;;;;;;;;;;;7.95;66.51;100177.47;1088170;54;19943;-77
2023/01/12 01:16:05;;;;;;;;;;;;;;;8.02;66.58;100183.16;1088490;46;19923;-76
2023/01/12 01:17:06;;;;;;;;;;;;;;;7.95;66.29;100180.97;1088046;54;19943;-78
2023/01/12 01:18:10;;;;;;;;;;;;;;;7.91;66.59;100176.88;1090321;47;19942;-77
2023/01/12 01:19:11;;;;;;;;;;;;;;;7.91;66.81;100181.34;1090101;46;19966;-77
2023/01/12 01:20:15;;;;;;;;;;;;;;;7.95;66.63;100185.47;1088398;46;19923;-77
2023/01/12 01:21:17;;;;;;;;;;;;;;;7.88;66.92;100185.09;1088137;54;19943;-77
2023/01/12 01:22:21;;;;;;;;;;;;;;;7.95;66.71;100182.78;1088149;54;19927;-78
2023/01/12 01:23:23;;;;;;;;;;;;;;;7.96;66.55;100181.84;1088185;54;19926;-77
2023/01/12 01:24:27;;;;;;;;;;;;;;;7.95;66.51;100182.78;1093263;31;20565;-78
2023/01/12 01:25:28;;;;;;;;;;;;;;;7.88;66.74;100187.75;1092628;39;20928;-78
2023/01/12 01:26:32;;;;;;;;;;;;;;;7.92;66.70;100178.56;1088134;54;19950;-77
2023/01/12 01:27:33;;;;;;;;;;;;;;;7.95;66.76;100172.16;1088067;54;19970;-77
2023/01/12 01:28:37;;;;;;;;;;;;;;;8.00;66.58;100185.09;1088138;54;19933;-78
2023/01/12 01:29:43;;;;;;;;;;;;;;;8.01;66.50;100174.31;1088106;54;19954;-78
2023/01/12 01:30:45;;;;;;;;;;;;;;;8.02;66.27;100169.84;1087836;54;19953;-77
2023/01/12 01:31:49;;;;;;;;;;;;;;;7.94;66.29;100179.28;1088129;54;19954;-76
2023/01/12 01:32:50;;;;;;;;;;;;;;;8.00;66.36;100185.91;1088084;54;19942;-76
2023/01/12 01:33:54;;;;;;;;;;;;;;;7.96;66.26;100179.16;1088056;54;19950;-77
2023/01/12 01:34:55;;;;;;;;;;;;;;;7.94;66.42;100181.94;1088041;54;19927;-77
2023/01/12 01:35:58;;;;;;;;;;;;;;;7.96;66.33;100187.97;1088042;54;20641;-76
2023/01/12 01:36:59;;;;;;;;;;;;;;;7.93;66.59;100188.25;1087904;54;19946;-77
2023/01/12 01:38:03;;;;;;;;;;;;;;;7.96;66.43;100185.31;1088056;54;19934;-77
2023/01/12 01:39:04;;;;;;;;;;;;;;;7.92;66.41;100183.91;1087949;54;19938;-77
2023/01/12 01:40:09;;;;;;;;;;;;;;;7.88;66.60;100193.09;1088140;54;19949;-79
2023/01/12 01:41:15;;;;;;;;;;;;;;;7.92;66.85;100193.69;1089673;39;20482;-76
2023/01/12 01:42:29;;;;;;;;;;;;;;;7.95;66.56;100194.28;1090100;46;19943;-77
2023/01/12 01:43:46;;;;;;;;;;;;;;;7.88;66.83;100198.41;1088120;54;19942;-77
2023/01/12 01:44:54;;;;;;;;;;;;;;;7.84;67.29;100196.94;1088200;47;21030;-78
2023/01/12 01:46:00;;;;;;;;;;;;;;;7.97;66.58;100200.31;1088052;54;19930;-78
2023/01/12 01:47:06;;;;;;;;;;;;;;;7.91;66.85;100192.84;1088125;54;20301;-77
2023/01/12 01:48:09;;;;;;;;;;;;;;;7.83;67.02;100195.28;1088075;54;19927;-77
2023/01/12 01:49:24;;;;;;;;;;;;;;;7.92;66.81;100199.88;1088123;54;19949;-78
2023/01/12 01:50:29;;;;;;;;;;;;;;;7.86;67.14;100200.34;1089607;46;19927;-77
2023/01/12 01:51:32;;;;;;;;;;;;;;;7.91;67.32;100192.84;1088097;54;20650;-77
2023/01/12 01:52:36;;;;;;;;;;;;;;;7.88;67.41;100192.25;1088130;54;19926;-78
2023/01/12 01:53:41;;;;;;;;;;;;;;;7.83;67.33;100189.97;1090146;46;19950;-77
2023/01/12 01:54:45;;;;;;;;;;;;;;;7.95;67.00;100196.09;1095277;39;20495;-78
2023/01/12 01:55:51;;;;;;;;;;;;;;;7.90;67.08;100193.81;1088018;54;19943;-77
2023/01/12 01:56:55;;;;;;;;;;;;;;;7.87;67.43;100199.38;1088111;54;19943;-77
2023/01/12 01:58:00;;;;;;;;;;;;;;;7.83;67.22;100192.63;1087989;54;19942;-78
2023/01/12 01:59:05;;;;;;;;;;;;;;;7.80;67.36;100199.00;1088086;54;19942;-77
2023/01/12 02:00:13;;;;;;;;;;;;;;;7.77;67.82;100196.63;1087947;54;20749;-77
2023/01/12 02:01:15;;;;;;;;;;;;;;;7.80;67.46;100200.84;1088089;54;19974;-77
2023/01/12 02:02:19;;;;;;;;;;;;;;;7.84;67.50;100194.28;1088063;54;19998;-79
2023/01/12 02:03:20;;;;;;;;;;;;;;;7.84;67.76;100196.94;1088085;54;19931;-77
2023/01/12 02:04:25;;;;;;;;;;;;;;;7.91;67.54;100197.31;1088045;54;19994;-78
2023/01/12 02:05:26;;;;;;;;;;;;;;;7.84;67.66;100190.78;1088075;54;19943;-77
2023/01/12 02:06:31;;;;;;;;;;;;;;;7.82;67.88;100190.94;1088101;54;19954;-78
2023/01/12 02:07:32;;;;;;;;;;;;;;;7.92;67.73;100186.56;1088958;46;19927;-78
2023/01/12 02:08:41;;;;;;;;;;;;;;;7.85;67.52;100185.34;1088030;54;19934;-77
2023/01/12 02:09:45;;;;;;;;;;;;;;;7.91;67.72;100176.88;1088042;54;19950;-79
2023/01/12 02:10:47;;;;;;;;;;;;;;;7.89;67.78;100186.78;1088950;39;20545;-77
2023/01/12 02:17:09;;;;;;;;;;;;;;;7.74;68.43;100166.75;1088042;54;19939;-77
2023/01/12 02:18:16;;;;;;;;;;;;;;;7.72;68.19;100171.34;1087986;54;19939;-78
2023/01/12 02:19:33;;;;;;;;;;;;;;;7.80;68.01;100167.06;1094167;39;20526;-79
2023/01/12 02:20:52;;;;;;;;;;;;;;;7.93;67.98;100158.09;1091565;39;20835;-78
2023/01/12 02:22:12;;;;;;;;;;;;;;;7.80;68.16;100163.59;1087994;54;19943;-77
2023/01/12 02:23:33;;;;;;;;;;;;;;;7.77;68.25;100153.19;1088099;54;19927;-77
2023/01/12 02:24:57;;;;;;;;;;;;;;;7.76;68.30;100162.13;1087984;54;19950;-77
2023/01/12 02:26:07;;;;;;;;;;;;;;;7.71;68.20;100151.03;1088512;47;19942;-78
2023/01/12 02:27:28;;;;;;;;;;;;;;;7.84;68.25;100153.53;1088055;54;19949;-76
2023/01/12 02:28:52;;;;;;;;;;;;;;;7.86;67.91;100152.44;1088029;54;19942;-78
2023/01/12 02:30:12;;;;;;;;;;;;;;;7.89;67.88;100152.19;1088013;54;20554;-77
2023/01/12 02:31:31;;;;;;;;;;;;;;;7.96;67.90;100145.38;1090405;31;20570;-77
2023/01/12 02:32:40;;;;;;;;;;;;;;;7.95;67.57;100143.69;1087876;54;20614;-78
2023/01/12 02:33:48;;;;;;;;;;;;;;;7.94;67.35;100139.34;1088068;54;19947;-77
2023/01/12 02:34:52;;;;;;;;;;;;;;;7.96;67.41;100141.91;1088063;54;19942;-77
2023/01/12 02:36:00;;;;;;;;;;;;;;;8.05;67.06;100145.59;1088020;54;19942;-78
2023/01/12 02:37:07;;;;;;;;;;;;;;;8.02;67.19;100135.22;1087974;54;19950;-78
2023/01/12 02:38:14;;;;;;;;;;;;;;;8.06;67.10;100133.97;1089051;47;19933;-78
2023/01/12 02:39:20;;;;;;;;;;;;;;;8.05;66.97;100132.28;1088904;47;19946;-76
2023/01/12 02:40:27;;;;;;;;;;;;;;;8.12;67.15;100125.50;1089341;47;19961;-77
2023/01/12 02:42:54;;;;;;;;;;;;;;;8.15;66.79;100116.41;1088156;54;19939;-77
2023/01/12 02:43:58;;;;;;;;;;;;;;;8.19;66.87;100117.84;1088120;54;19947;-78
2023/01/12 02:45:01;;;;;;;;;;;;;;;8.14;66.83;100123.53;1088017;54;19951;-77
2023/01/12 02:46:10;;;;;;;;;;;;;;;8.10;66.97;100111.47;1088129;47;19950;-79
2023/01/12 02:47:16;;;;;;;;;;;;;;;8.14;66.81;100118.22;1087946;54;19947;-77
2023/01/12 02:48:26;;;;;;;;;;;;;;;8.18;66.76;100118.81;1087893;54;19941;-77
2023/01/12 02:49:30;;;;;;;;;;;;;;;8.10;67.00;100112.31;1088034;54;19943;-77
2023/01/12 02:50:37;;;;;;;;;;;;;;;8.18;66.62;100113.47;1088150;47;19942;-77
2023/01/12 02:51:39;;;;;;;;;;;;;;;8.20;66.54;100106.22;1087980;54;19943;-77
2023/01/12 02:52:45;;;;;;;;;;;;;;;8.21;66.98;100106.09;1088000;54;19943;-78
2023/01/12 02:53:48;;;;;;;;;;;;;;;8.26;66.39;100101.22;1087932;54;19958;-77
2023/01/12 02:54:53;;;;;;;;;;;;;;;8.27;66.60;100105.59;1087920;54;19981;-78
2023/01/12 02:55:55;;;;;;;;;;;;;;;8.26;66.54;100098.56;1087977;54;19950;-77
2023/01/12 02:57:02;;;;;;;;;;;;;;;8.20;66.64;100107.06;1087936;54;20808;-78
2023/01/12 02:58:06;;;;;;;;;;;;;;;8.24;66.92;100103.16;1087931;54;19949;-78
2023/01/12 02:59:11;;;;;;;;;;;;;;;8.23;66.79;100112.13;1087964;54;19949;-77
2023/01/12 03:00:14;;;;;;;;;;;;;;;8.23;66.78;100105.97;1087962;54;19943;-78
2023/01/12 03:01:19;;;;;;;;;;;;;;;8.18;66.78;100105.47;1087928;54;19973;-78
2023/01/12 03:02:22;;;;;;;;;;;;;;;8.19;66.94;100105.38;1087971;54;19939;-79
2023/01/12 03:03:28;;;;;;;;;;;;;;;8.16;67.26;100102.97;1087965;54;20539;-79
2023/01/12 03:04:30;;;;;;;;;;;;;;;8.23;66.98;100101.47;1087921;54;19966;-78
2023/01/12 03:05:34;;;;;;;;;;;;;;;8.19;66.83;100104.50;1087898;54;19943;-78
2023/01/12 03:06:40;;;;;;;;;;;;;;;8.20;66.97;100112.41;1087957;54;19943;-77
2023/01/12 03:07:49;;;;;;;;;;;;;;;8.17;67.29;100109.97;1087969;54;19950;-77
2023/01/12 03:08:50;;;;;;;;;;;;;;;8.21;67.03;100106.09;1087950;54;19943;-78
2023/01/12 03:09:57;;;;;;;;;;;;;;;8.19;66.96;100110.72;1087928;54;19942;-77
2023/01/12 03:11:03;;;;;;;;;;;;;;;8.14;67.25;100107.56;1087943;54;19954;-78
2023/01/12 03:12:08;;;;;;;;;;;;;;;8.09;67.19;100093.81;1088221;47;20570;-76
2023/01/12 03:13:11;;;;;;;;;;;;;;;8.14;67.31;100101.41;1087831;54;19943;-77
2023/01/12 03:14:15;;;;;;;;;;;;;;;8.17;67.21;100099.31;1087960;54;19938;-77
2023/01/12 03:15:18;;;;;;;;;;;;;;;8.04;67.24;100110.16;1087956;54;19943;-77
2023/01/12 03:16:23;;;;;;;;;;;;;;;8.00;67.62;100102.56;1087935;54;19949;-77
2023/01/12 03:17:26;;;;;;;;;;;;;;;8.01;67.57;100102.41;1087953;54;19930;-76
2023/01/12 03:18:34;;;;;;;;;;;;;;;8.15;67.48;100098.59;1087890;54;19950;-77
2023/01/12 03:19:35;;;;;;;;;;;;;;;8.13;67.37;100095.22;1087991;54;19962;-77
2023/01/12 03:20:41;;;;;;;;;;;;;;;8.04;67.42;100095.97;1087882;54;19938;-78
2023/01/12 03:21:48;;;;;;;;;;;;;;;8.14;67.24;100091.59;1087921;54;19942;-77
2023/01/12 03:22:52;;;;;;;;;;;;;;;8.11;67.42;100098.03;1087949;54;19962;-77
2023/01/12 03:24:01;;;;;;;;;;;;;;;8.07;67.57;100093.94;1087930;54;19945;-78
2023/01/12 03:25:08;;;;;;;;;;;;;;;8.04;67.82;100094.19;1089473;47;19950;-78
2023/01/12 03:26:12;;;;;;;;;;;;;;;8.04;67.67;100095.97;1087865;54;19942;-79
2023/01/12 03:27:16;;;;;;;;;;;;;;;8.04;67.61;100096.84;1092877;39;20180;-77
2023/01/12 03:28:21;;;;;;;;;;;;;;;8.14;67.49;100091.59;1087870;54;19942;-78
2023/01/12 03:29:24;;;;;;;;;;;;;;;8.14;67.43;100090.75;1089291;47;19926;-78
2023/01/12 03:30:32;;;;;;;;;;;;;;;8.05;67.83;100093.22;1087920;54;19946;-77
2023/01/12 03:31:36;;;;;;;;;;;;;;;8.07;67.47;100087.75;1087939;54;19942;-77
2023/01/12 03:32:37;;;;;;;;;;;;;;;8.17;67.33;100095.84;1087883;54;19962;-78
2023/01/12 03:33:44;;;;;;;;;;;;;;;8.15;67.55;100093.28;1087936;54;19929;-78
2023/01/12 03:34:45;;;;;;;;;;;;;;;8.16;67.27;100094.16;1088263;47;19942;-77
2023/01/12 03:35:52;;;;;;;;;;;;;;;8.11;67.63;100087.38;1088817;47;19946;-77
2023/01/12 03:36:58;;;;;;;;;;;;;;;8.11;67.39;100102.50;1087934;54;19957;-78
2023/01/12 03:38:03;;;;;;;;;;;;;;;8.15;67.68;100089.78;1088203;47;19953;-77
2023/01/12 03:39:13;;;;;;;;;;;;;;;8.11;67.78;100089.19;1088313;47;19943;-76
2023/01/12 03:40:17;;;;;;;;;;;;;;;8.11;67.78;100087.38;1091296;47;19946;-77
2023/01/12 03:41:27;;;;;;;;;;;;;;;8.17;67.38;100090.50;1088171;54;19934;-78
2023/01/12 03:42:32;;;;;;;;;;;;;;;8.14;67.45;100080.09;1088312;54;19942;-77
2023/01/12 03:43:39;;;;;;;;;;;;;;;8.10;67.67;100084.84;1088641;46;19927;-78
2023/01/12 03:44:45;;;;;;;;;;;;;;;8.06;67.65;100088.72;1088315;54;19995;-77
2023/01/12 03:45:51;;;;;;;;;;;;;;;8.09;67.65;100093.81;1088223;54;19950;-77
2023/01/12 03:46:55;;;;;;;;;;;;;;;8.18;67.46;100082.38;1091461;46;19938;-77
2023/01/12 03:48:02;;;;;;;;;;;;;;;8.06;67.36;100084.25;1088332;54;19949;-77
2023/01/12 03:49:09;;;;;;;;;;;;;;;8.17;67.20;100091.34;1088320;54;19923;-77
2023/01/12 03:50:15;;;;;;;;;;;;;;;8.20;66.97;100083.09;1088398;54;19943;-78
2023/01/12 03:51:19;;;;;;;;;;;;;;;8.14;67.15;100080.94;1088271;54;19939;-78
2023/01/12 03:52:24;;;;;;;;;;;;;;;8.11;67.02;100086.53;1088311;54;19943;-77
2023/01/12 03:53:25;;;;;;;;;;;;;;;8.11;67.42;100082.03;1088307;54;19943;-78
2023/01/12 03:54:29;;;;;;;;;;;;;;;8.11;67.29;100083.88;1088300;54;19950;-78
2023/01/12 03:55:31;;;;;;;;;;;;;;;8.23;67.15;100085.50;1088280;54;19965;-78
2023/01/12 03:56:37;;;;;;;;;;;;;;;8.28;67.10;100082.44;1088246;54;19942;-78
2023/01/12 03:57:38;;;;;;;;;;;;;;;8.23;67.10;100087.31;1088370;54;19927;-78
2023/01/12 03:58:42;;;;;;;;;;;;;;;8.19;67.12;100088.53;1088306;54;19926;-78
2023/01/12 03:59:46;;;;;;;;;;;;;;;8.28;66.82;100080.63;1088378;54;19939;-77
2023/01/12 04:00:47;;;;;;;;;;;;;;;8.26;66.92;100074.59;1088110;54;19939;-78
2023/01/12 04:01:50;;;;;;;;;;;;;;;8.26;67.00;100079.09;1089086;46;19969;-78
2023/01/12 04:03:00;;;;;;;;;;;;;;;8.30;66.79;100075.16;1088190;54;19942;-77
2023/01/12 04:04:04;;;;;;;;;;;;;;;8.23;66.83;100077.50;1088311;54;19965;-77
2023/01/12 04:05:08;;;;;;;;;;;;;;;8.28;66.63;100077.13;1088274;54;19950;-77
2023/01/12 04:06:12;;;;;;;;;;;;;;;8.24;66.83;100076.53;1088223;54;19954;-77
2023/01/12 04:07:13;;;;;;;;;;;;;;;8.28;66.77;100072.66;1088215;54;19943;-78
2023/01/12 04:08:17;;;;;;;;;;;;;;;8.35;66.83;100064.13;1088227;54;19927;-77
2023/01/12 04:09:18;;;;;;;;;;;;;;;8.25;66.83;100074.72;1088681;39;20120;-78
2023/01/12 04:10:22;;;;;;;;;;;;;;;8.31;66.78;100084.03;1090208;46;19939;-77
2023/01/12 04:12:45;;;;;;;;;;;;;;;8.21;67.06;100082.13;1088152;54;19950;-77
2023/01/12 04:13:46;;;;;;;;;;;;;;;8.33;66.83;100080.25;1091407;39;20297;-77
2023/01/12 04:14:50;;;;;;;;;;;;;;;8.26;67.14;100074.59;1091833;46;19938;-77
2023/01/12 04:15:51;;;;;;;;;;;;;;;8.28;66.96;100072.66;1088145;54;19943;-77
2023/01/12 04:16:55;;;;;;;;;;;;;;;8.32;66.61;100075.03;1089963;46;19978;-78
2023/01/12 04:17:56;;;;;;;;;;;;;;;8.23;66.97;100082.81;1088123;54;19930;-78
2023/01/12 04:18:59;;;;;;;;;;;;;;;8.18;67.25;100077.06;1088332;46;19962;-77
2023/01/12 04:20:01;;;;;;;;;;;;;;;8.24;66.73;100089.00;1088185;54;19939;-78
2023/01/12 04:22:41;;;;;;;;;;;;;;;8.20;66.93;100088.44;1088174;54;19927;-78
2023/01/12 04:22:44;;;;;;;;;;;;;;;8.32;66.89;100083.03;1088166;54;19933;-78
2023/01/12 04:23:45;;;;;;;;;;;;;;;8.23;67.17;100076.66;1087712;46;19927;-77
2023/01/12 04:24:47;;;;;;;;;;;;;;;8.28;67.04;100082.44;1088099;54;19942;-77
2023/01/12 04:25:51;;;;;;;;;;;;;;;8.30;66.91;100074.34;1089901;46;19990;-77
2023/01/12 04:26:52;;;;;;;;;;;;;;;8.22;67.05;100062.50;1088229;54;19942;-78
2023/01/12 04:28:00;;;;;;;;;;;;;;;8.30;66.89;100071.69;1088467;46;19926;-78
2023/01/12 04:29:01;;;;;;;;;;;;;;;8.21;67.29;100062.63;1088798;46;19965;-77
2023/01/12 04:30:05;;;;;;;;;;;;;;;8.17;67.17;100059.38;1088197;54;19943;-77
2023/01/12 04:31:08;;;;;;;;;;;;;;;8.28;67.06;100064.66;1088141;54;19943;-77
2023/01/12 04:32:12;;;;;;;;;;;;;;;8.26;66.95;100057.78;1088203;54;19927;-77
2023/01/12 04:33:13;;;;;;;;;;;;;;;8.24;67.07;100065.88;1088234;54;19927;-77
2023/01/12 04:34:16;;;;;;;;;;;;;;;8.18;67.22;100063.75;1088121;54;19943;-79
2023/01/12 04:35:20;;;;;;;;;;;;;;;8.18;67.09;100069.06;1088137;54;19949;-78
2023/01/12 04:36:26;;;;;;;;;;;;;;;8.26;66.96;100065.78;1088104;54;20579;-78
2023/01/12 04:37:27;;;;;;;;;;;;;;;8.36;66.90;100060.50;1088114;47;20273;-77
2023/01/12 04:38:31;;;;;;;;;;;;;;;8.27;67.13;100054.97;1088177;54;19935;-77
2023/01/12 04:39:32;;;;;;;;;;;;;;;8.27;66.86;100052.31;1087936;54;19958;-77
2023/01/12 04:40:36;;;;;;;;;;;;;;;8.27;66.73;100048.78;1088241;54;19990;-78
2023/01/12 04:41:37;;;;;;;;;;;;;;;8.33;66.89;100047.44;1088185;54;19934;-78
2023/01/12 04:43:06;;;;;;;;;;;;;;;8.33;67.10;100055.41;1088192;54;19962;-78
2023/01/12 04:45:41;;;;;;;;;;;;;;;8.28;66.83;100046.00;1087300;54;19962;-78
2023/01/12 04:46:49;;;;;;;;;;;;;;;8.41;66.77;100052.94;1086598;54;19952;-79
2023/01/12 04:47:53;;;;;;;;;;;;;;;8.37;67.00;100049.69;1085087;54;19950;-77
2023/01/12 04:48:54;;;;;;;;;;;;;;;8.38;66.79;100045.22;1085208;54;20496;-77
2023/01/12 04:57:55;;;;;;;;;;;;;;;8.33;67.03;100026.97;1086793;54;19951;-78
2023/01/12 04:58:58;;;;;;;;;;;;;;;8.33;67.06;100024.31;1086511;54;19973;-78
2023/01/12 05:00:03;;;;;;;;;;;;;;;8.24;67.15;100023.25;1086188;54;19947;-78
2023/01/12 05:01:07;;;;;;;;;;;;;;;8.31;66.92;100031.59;1086570;54;20062;-78
2023/01/12 05:02:11;;;;;;;;;;;;;;;8.35;67.03;100034.81;1086504;54;19967;-78
2023/01/12 05:03:12;;;;;;;;;;;;;;;8.36;67.13;100037.34;1087948;54;19943;-79
2023/01/12 05:04:16;;;;;;;;;;;;;;;8.37;66.91;100043.53;1088101;54;19939;-78
2023/01/12 05:05:17;;;;;;;;;;;;;;;8.34;67.01;100038.47;1086823;54;19969;-77
2023/01/12 05:06:21;;;;;;;;;;;;;;;8.31;67.09;100038.75;1086747;54;19994;-79
2023/01/12 05:07:22;;;;;;;;;;;;;;;8.25;67.05;100046.25;1086840;54;20452;-78
2023/01/12 05:10:59;;;;;;;;;;;;;;;8.33;66.98;100042.09;1086225;54;19955;-78
2023/01/12 05:12:00;;;;;;;;;;;;;;;8.39;67.07;100037.09;1086735;54;20563;-78
2023/01/12 05:13:06;;;;;;;;;;;;;;;8.48;66.52;100031.97;1086750;54;20493;-77
2023/01/12 05:14:07;;;;;;;;;;;;;;;8.38;66.77;100029.25;1088729;39;20408;-78
2023/01/12 05:15:11;;;;;;;;;;;;;;;8.37;66.86;100032.88;1087039;39;20436;-78
2023/01/12 05:16:14;;;;;;;;;;;;;;;8.37;67.11;100035.53;1086534;54;19947;-78
2023/01/12 05:17:18;;;;;;;;;;;;;;;8.47;66.93;100028.50;1086952;54;19942;-78
2023/01/12 05:18:19;;;;;;;;;;;;;;;8.53;66.51;100037.78;1087003;54;19951;-78
2023/01/12 05:19:22;;;;;;;;;;;;;;;8.40;66.86;100030.81;1086514;54;20270;-77
2023/01/12 05:20:23;;;;;;;;;;;;;;;8.44;66.71;100028.72;1087656;39;20369;-79
2023/01/12 05:21:27;;;;;;;;;;;;;;;8.41;66.55;100031.63;1086731;54;19959;-78
2023/01/12 05:22:30;;;;;;;;;;;;;;;8.38;66.78;100034.56;1086737;54;19973;-78
2023/01/12 05:23:34;;;;;;;;;;;;;;;8.43;66.79;100029.69;1086605;54;20723;-78
2023/01/12 05:24:35;;;;;;;;;;;;;;;8.48;66.60;100018.66;1086855;54;19946;-78
2023/01/12 05:25:38;;;;;;;;;;;;;;;8.43;66.61;100032.34;1086861;54;19946;-78
2023/01/12 05:26:40;;;;;;;;;;;;;;;8.48;66.79;100027.53;1086985;54;19950;-78
2023/01/12 05:27:43;;;;;;;;;;;;;;;8.50;66.71;100027.38;1086857;54;19942;-78
2023/01/12 05:28:49;;;;;;;;;;;;;;;8.44;66.57;100020.72;1087006;54;19957;-78
2023/01/12 05:29:52;;;;;;;;;;;;;;;8.42;66.72;100022.66;1086934;54;19947;-78
2023/01/12 05:30:53;;;;;;;;;;;;;;;8.46;66.64;100026.78;1088102;39;20357;-77
2023/01/12 05:31:57;;;;;;;;;;;;;;;8.55;66.33;100019.81;1086885;54;19939;-78
2023/01/12 05:32:58;;;;;;;;;;;;;;;8.53;66.51;100017.28;1086826;54;19947;-77
2023/01/12 05:34:02;;;;;;;;;;;;;;;8.49;66.50;100026.53;1086582;54;19951;-78
2023/01/12 05:35:04;;;;;;;;;;;;;;;8.56;66.42;100022.38;1086951;54;19977;-78
2023/01/12 05:36:09;;;;;;;;;;;;;;;8.58;66.51;100024.91;1086922;54;19955;-79
2023/01/12 05:37:10;;;;;;;;;;;;;;;8.49;66.59;100028.34;1086963;54;19957;-78
2023/01/12 05:38:13;;;;;;;;;;;;;;;8.50;66.68;100025.53;1087082;54;19957;-78
2023/01/12 05:39:15;;;;;;;;;;;;;;;8.51;66.91;100029.91;1086815;54;19962;-78
2023/01/12 05:40:18;;;;;;;;;;;;;;;8.51;66.62;100029.06;1087156;39;20404;-79
2023/01/12 05:41:21;;;;;;;;;;;;;;;8.53;66.56;100019.97;1087484;54;20019;-78
2023/01/12 05:43:53;;;;;;;;;;;;;;;8.54;66.67;100019.00;1087757;54;20833;-78
2023/01/12 05:44:57;;;;;;;;;;;;;;;8.49;66.37;100021.22;1086680;54;19947;-78
2023/01/12 05:46:03;;;;;;;;;;;;;;;8.41;66.60;100018.31;1086708;54;19970;-78
2023/01/12 05:47:04;;;;;;;;;;;;;;;8.47;66.59;100017.84;1086731;54;19947;-77
2023/01/12 05:48:10;;;;;;;;;;;;;;;8.53;66.38;100019.13;1086875;54;19966;-78
2023/01/12 05:49:11;;;;;;;;;;;;;;;8.52;66.39;100017.44;1086728;54;19938;-78
2023/01/12 05:50:15;;;;;;;;;;;;;;;8.62;66.42;100013.00;1087480;46;19973;-78
2023/01/12 05:51:16;;;;;;;;;;;;;;;8.65;66.17;100010.06;1086732;54;19942;-77
2023/01/12 05:52:20;;;;;;;;;;;;;;;8.57;66.46;100008.06;1086810;47;20023;-78
2023/01/12 05:53:21;;;;;;;;;;;;;;;8.61;66.39;100008.66;1086666;54;19947;-79
2023/01/12 05:54:25;;;;;;;;;;;;;;;8.68;66.27;100004.47;1086864;54;19951;-78
2023/01/12 05:55:26;;;;;;;;;;;;;;;8.67;66.40;100007.28;1086837;54;19950;-78
2023/01/12 05:56:31;;;;;;;;;;;;;;;8.64;66.44;100003.06;1087214;39;20349;-78
2023/01/12 05:57:32;;;;;;;;;;;;;;;8.58;66.12;100009.75;1086556;54;19947;-77
2023/01/12 05:58:36;;;;;;;;;;;;;;;8.55;66.13;99998.50;1087404;54;19927;-78
2023/01/12 05:59:39;;;;;;;;;;;;;;;8.64;66.01;100010.19;1087698;54;19947;-77
2023/01/12 06:00:45;;;;;;;;;;;;;;;8.70;65.80;100012.31;1087672;54;19962;-78
2023/01/12 06:01:46;;;;;;;;;;;;;;;8.66;65.79;100009.06;1088095;39;20913;-77
2023/01/12 06:02:50;;;;;;;;;;;;;;;8.70;66.10;100006.97;1087796;54;19963;-78